Portada
METAR-TAF:

METAR-TAF

Aeroports :

Najran, Aràbia Saudita

latitud: 17-37N, longitud: 044-25E, altitud: 1212 m

Observació

L'informe es va fer fa 56 minuts, a les 12:00 UTC
Vent 4 kt del Nord-Est
Temperatura 31°C
Humitat 10%
Pressió 1018 hPa
Visibilitat 10 km o més
sense núvols per sota de 1500 mi sense presència de cumulonimbus.

METAR: OENG 221200Z 05004KT CAVOK 31/M04 Q1018 NOSIG

Hora: 15:56 (12:56 UTC)

Pronòstic

L'informe es va fer fa 1 hora i 56 minuts, a les 11:00 UTC
Pronòstic vàlid del 22 a les 12 UTC al 23 a les 18 UTC
Vent 14 kt del Est/Nord-Est
Visibilitat 10 km o més
sense núvols per sota de 1500 mi sense presència de cumulonimbus.
Evolucionant progressivament
l' 22 a les 18 UTC al 22 a les 20 UTC
Vent 3 kt amb direcció variable

TAF: OENG 221100Z 2212/2318 06014KT CAVOK BECMG 2218/2220 VRB03KT

Observacions i pronòstics meteorològics de més de 4000 aeroports (METAR i TAF).

Les estacions disponibles són els punts grocs i vermells al mapa.

Posi el ratolí al punt desitjat per veure el nom de l'estació.

Feu clic per veure les observacions i els pronòstics meteorològics.

Per canviar el mapa: feu clic els botons verds amb una creu de color negre per apropar; al botó verd amb un guió per allunyar la imatge; o en les fletxes verdes per a mapes adjacents.


METAR-TAF: